sensor_id;sensor_type;location;lat;lon;timestamp;pressure;altitude;pressure_sealevel;temperature;humidity
25584;BME280;13463;51.526;9.928;2023-12-20T00:00:56;99571.69;;;5.50;100.00
25584;BME280;13463;51.526;9.928;2023-12-20T00:03:23;99574.56;;;5.44;100.00
25584;BME280;13463;51.526;9.928;2023-12-20T00:05:50;99580.88;;;5.39;100.00
25584;BME280;13463;51.526;9.928;2023-12-20T00:08:17;99574.94;;;5.34;100.00
25584;BME280;13463;51.526;9.928;2023-12-20T00:10:44;99564.31;;;5.37;100.00
25584;BME280;13463;51.526;9.928;2023-12-20T00:13:11;99577.38;;;5.39;100.00
25584;BME280;13463;51.526;9.928;2023-12-20T00:15:37;99564.84;;;5.46;100.00
25584;BME280;13463;51.526;9.928;2023-12-20T00:18:04;99566.88;;;5.39;100.00
25584;BME280;13463;51.526;9.928;2023-12-20T00:20:31;99564.97;;;5.43;100.00
25584;BME280;13463;51.526;9.928;2023-12-20T00:22:58;99565.94;;;5.40;100.00
25584;BME280;13463;51.526;9.928;2023-12-20T00:25:24;99564.31;;;5.37;100.00
25584;BME280;13463;51.526;9.928;2023-12-20T00:27:51;99562.41;;;5.41;100.00
25584;BME280;13463;51.526;9.928;2023-12-20T00:30:18;99558.13;;;5.38;100.00
25584;BME280;13463;51.526;9.928;2023-12-20T00:32:45;99564.31;;;5.37;100.00
25584;BME280;13463;51.526;9.928;2023-12-20T00:35:14;99560.38;;;5.48;100.00
25584;BME280;13463;51.526;9.928;2023-12-20T00:37:41;99561.81;;;5.55;100.00
25584;BME280;13463;51.526;9.928;2023-12-20T00:40:08;99554.47;;;5.63;100.00
25584;BME280;13463;51.526;9.928;2023-12-20T00:42:35;99561.06;;;5.73;100.00
25584;BME280;13463;51.526;9.928;2023-12-20T00:45:02;99557.66;;;5.71;100.00
25584;BME280;13463;51.526;9.928;2023-12-20T00:47:31;99553.84;;;5.78;100.00
25584;BME280;13463;51.526;9.928;2023-12-20T00:49:58;99561.19;;;5.70;100.00
25584;BME280;13463;51.526;9.928;2023-12-20T00:52:25;99566.63;;;5.87;100.00
25584;BME280;13463;51.526;9.928;2023-12-20T00:54:51;99560.19;;;5.94;100.00
25584;BME280;13463;51.526;9.928;2023-12-20T00:57:18;99562.41;;;5.83;100.00
25584;BME280;13463;51.526;9.928;2023-12-20T00:59:45;99559.34;;;5.72;100.00
25584;BME280;13463;51.526;9.928;2023-12-20T01:02:11;99565.66;;;5.89;100.00
25584;BME280;13463;51.526;9.928;2023-12-20T01:04:38;99564.75;;;5.90;100.00
25584;BME280;13463;51.526;9.928;2023-12-20T01:07:04;99554.84;;;5.95;100.00
25584;BME280;13463;51.526;9.928;2023-12-20T01:09:31;99560.84;;;5.99;100.00
25584;BME280;13463;51.526;9.928;2023-12-20T01:11:58;99562.75;;;6.16;100.00
25584;BME280;13463;51.526;9.928;2023-12-20T01:14:24;99569.00;;;6.13;100.00
25584;BME280;13463;51.526;9.928;2023-12-20T01:16:51;99554.69;;;6.00;100.00
25584;BME280;13463;51.526;9.928;2023-12-20T01:19:17;99554.81;;;5.97;100.00
25584;BME280;13463;51.526;9.928;2023-12-20T01:21:44;99556.69;;;6.14;100.00
25584;BME280;13463;51.526;9.928;2023-12-20T01:24:11;99554.19;;;6.11;100.00
25584;BME280;13463;51.526;9.928;2023-12-20T01:26:37;99550.44;;;6.16;100.00
25584;BME280;13463;51.526;9.928;2023-12-20T01:29:04;99549.00;;;6.09;100.00
25584;BME280;13463;51.526;9.928;2023-12-20T01:31:30;99553.94;;;5.96;100.00
25584;BME280;13463;51.526;9.928;2023-12-20T01:33:57;99550.84;;;5.87;100.00
25584;BME280;13463;51.526;9.928;2023-12-20T01:36:24;99555.41;;;5.82;100.00
25584;BME280;13463;51.526;9.928;2023-12-20T01:38:50;99548.47;;;5.81;100.00
25584;BME280;13463;51.526;9.928;2023-12-20T01:41:17;99548.59;;;5.78;100.00
25584;BME280;13463;51.526;9.928;2023-12-20T01:43:44;99556.19;;;5.85;100.00
25584;BME280;13463;51.526;9.928;2023-12-20T01:46:17;99554.63;;;5.80;100.00
25584;BME280;13463;51.526;9.928;2023-12-20T01:48:44;99559.81;;;5.81;100.00
25584;BME280;13463;51.526;9.928;2023-12-20T01:51:11;99552.06;;;5.78;100.00
25584;BME280;13463;51.526;9.928;2023-12-20T01:53:39;99548.59;;;5.78;100.00
25584;BME280;13463;51.526;9.928;2023-12-20T01:56:06;99550.28;;;5.79;100.00
25584;BME280;13463;51.526;9.928;2023-12-20T01:58:33;99553.88;;;5.76;100.00
25584;BME280;13463;51.526;9.928;2023-12-20T02:01:00;99557.25;;;5.80;100.00
25584;BME280;13463;51.526;9.928;2023-12-20T02:03:27;99553.84;;;5.78;100.00
25584;BME280;13463;51.526;9.928;2023-12-20T02:05:55;99564.09;;;5.84;100.00
25584;BME280;13463;51.526;9.928;2023-12-20T02:08:21;99569.59;;;5.99;100.00
25584;BME280;13463;51.526;9.928;2023-12-20T02:10:48;99575.78;;;6.19;100.00
25584;BME280;13463;51.526;9.928;2023-12-20T02:13:15;99569.94;;;6.12;100.00
25584;BME280;13463;51.526;9.928;2023-12-20T02:15:42;99572.44;;;5.95;100.00
25584;BME280;13463;51.526;9.928;2023-12-20T02:18:10;99569.84;;;6.14;100.00
25584;BME280;13463;51.526;9.928;2023-12-20T02:20:36;99583.22;;;6.09;100.00
25584;BME280;13463;51.526;9.928;2023-12-20T02:23:03;99578.75;;;6.11;100.00
25584;BME280;13463;51.526;9.928;2023-12-20T02:25:30;99570.38;;;6.22;100.00
25584;BME280;13463;51.526;9.928;2023-12-20T02:27:56;99574.50;;;6.27;100.00
25584;BME280;13463;51.526;9.928;2023-12-20T02:30:23;99569.53;;;6.21;100.00
25584;BME280;13463;51.526;9.928;2023-12-20T02:32:51;99575.31;;;6.09;100.00
25584;BME280;13463;51.526;9.928;2023-12-20T02:35:18;99578.47;;;6.17;100.00
25584;BME280;13463;51.526;9.928;2023-12-20T02:37:45;99571.09;;;6.25;100.00
25584;BME280;13463;51.526;9.928;2023-12-20T02:40:12;99574.31;;;6.32;100.00
25584;BME280;13463;51.526;9.928;2023-12-20T02:42:39;99575.56;;;6.43;100.00
25584;BME280;13463;51.526;9.928;2023-12-20T02:45:06;99573.19;;;6.17;100.00
25584;BME280;13463;51.526;9.928;2023-12-20T02:47:33;99575.66;;;6.22;100.00
25584;BME280;13463;51.526;9.928;2023-12-20T02:49:59;99584.91;;;6.30;100.00
25584;BME280;13463;51.526;9.928;2023-12-20T02:52:28;99575.94;;;6.34;100.00
25584;BME280;13463;51.526;9.928;2023-12-20T02:54:55;99580.50;;;6.31;100.00
25584;BME280;13463;51.526;9.928;2023-12-20T02:57:21;99580.00;;;6.41;100.00
25584;BME280;13463;51.526;9.928;2023-12-20T02:59:48;99572.97;;;6.42;100.00
25584;BME280;13463;51.526;9.928;2023-12-20T03:02:15;99570.94;;;6.48;100.00
25584;BME280;13463;51.526;9.928;2023-12-20T03:04:41;99564.94;;;6.45;100.00
25584;BME280;13463;51.526;9.928;2023-12-20T03:07:08;99567.75;;;6.60;100.00
25584;BME280;13463;51.526;9.928;2023-12-20T03:09:35;99569.53;;;6.60;100.00
25584;BME280;13463;51.526;9.928;2023-12-20T03:12:21;99555.06;;;6.68;100.00
25584;BME280;13463;51.526;9.928;2023-12-20T03:14:48;99566.94;;;6.58;100.00
25584;BME280;13463;51.526;9.928;2023-12-20T03:17:15;99548.69;;;6.35;100.00
25584;BME280;13463;51.526;9.928;2023-12-20T03:19:42;99546.69;;;6.22;100.00
25584;BME280;13463;51.526;9.928;2023-12-20T03:22:08;99552.75;;;6.03;100.00
25584;BME280;13463;51.526;9.928;2023-12-20T03:24:35;99565.88;;;6.05;100.00
25584;BME280;13463;51.526;9.928;2023-12-20T03:27:01;99560.97;;;6.16;100.00
25584;BME280;13463;51.526;9.928;2023-12-20T03:29:28;99557.22;;;6.22;100.00
25584;BME280;13463;51.526;9.928;2023-12-20T03:31:54;99575.44;;;6.26;100.00
25584;BME280;13463;51.526;9.928;2023-12-20T03:34:21;99574.50;;;6.27;100.00
25584;BME280;13463;51.526;9.928;2023-12-20T03:36:48;99573.59;;;6.28;100.00
25584;BME280;13463;51.526;9.928;2023-12-20T03:39:14;99585.69;;;6.32;100.00
25584;BME280;13463;51.526;9.928;2023-12-20T03:41:41;99575.94;;;6.34;100.00
25584;BME280;13463;51.526;9.928;2023-12-20T03:44:07;99571.94;;;6.26;100.00
25584;BME280;13463;51.526;9.928;2023-12-20T03:46:34;99557.13;;;6.23;100.00
25584;BME280;13463;51.526;9.928;2023-12-20T03:49:00;99557.88;;;6.27;100.00
25584;BME280;13463;51.526;9.928;2023-12-20T03:51:30;99553.44;;;6.27;100.00
25584;BME280;13463;51.526;9.928;2023-12-20T03:53:57;99558.88;;;6.24;100.00
25584;BME280;13463;51.526;9.928;2023-12-20T03:56:23;99559.78;;;6.23;100.00
25584;BME280;13463;51.526;9.928;2023-12-20T03:58:50;99557.00;;;6.26;100.00
25584;BME280;13463;51.526;9.928;2023-12-20T04:01:16;99570.38;;;6.22;100.00
25584;BME280;13463;51.526;9.928;2023-12-20T04:03:43;99573.06;;;6.40;100.00
25584;BME280;13463;51.526;9.928;2023-12-20T04:06:09;99574.72;;;6.23;100.00
25584;BME280;13463;51.526;9.928;2023-12-20T04:08:36;99583.78;;;6.36;100.00
25584;BME280;13463;51.526;9.928;2023-12-20T04:11:03;99578.94;;;6.27;100.00
25584;BME280;13463;51.526;9.928;2023-12-20T04:13:29;99580.84;;;6.23;100.00
25584;BME280;13463;51.526;9.928;2023-12-20T04:15:56;99573.28;;;6.16;100.00
25584;BME280;13463;51.526;9.928;2023-12-20T04:18:22;99580.25;;;6.17;100.00
25584;BME280;13463;51.526;9.928;2023-12-20T04:20:49;99576.63;;;6.19;100.00
25584;BME280;13463;51.526;9.928;2023-12-20T04:23:18;99575.69;;;6.40;100.00
25584;BME280;13463;51.526;9.928;2023-12-20T04:25:45;99569.25;;;6.27;100.00
25584;BME280;13463;51.526;9.928;2023-12-20T04:28:13;99563.31;;;6.22;100.00
25584;BME280;13463;51.526;9.928;2023-12-20T04:30:39;99563.41;;;6.21;100.00
25584;BME280;13463;51.526;9.928;2023-12-20T04:33:06;99570.09;;;6.28;100.00
25584;BME280;13463;51.526;9.928;2023-12-20T04:35:33;99570.03;;;6.29;100.00
25584;BME280;13463;51.526;9.928;2023-12-20T04:37:59;99587.69;;;6.07;100.00
25584;BME280;13463;51.526;9.928;2023-12-20T04:40:26;99588.06;;;5.98;100.00
25584;BME280;13463;51.526;9.928;2023-12-20T04:42:53;99577.97;;;6.09;100.00
25584;BME280;13463;51.526;9.928;2023-12-20T04:45:19;99586.56;;;6.13;100.00
25584;BME280;13463;51.526;9.928;2023-12-20T04:47:46;99576.09;;;6.31;100.00
25584;BME280;13463;51.526;9.928;2023-12-20T04:50:14;99584.47;;;6.21;100.00
25584;BME280;13463;51.526;9.928;2023-12-20T04:52:41;99580.38;;;6.34;100.00
25584;BME280;13463;51.526;9.928;2023-12-20T04:55:08;99575.91;;;6.54;100.00
25584;BME280;13463;51.526;9.928;2023-12-20T04:57:35;99577.13;;;6.47;100.00
25584;BME280;13463;51.526;9.928;2023-12-20T05:00:02;99579.84;;;6.46;100.00
25584;BME280;13463;51.526;9.928;2023-12-20T05:02:29;99574.69;;;6.43;100.00
25584;BME280;13463;51.526;9.928;2023-12-20T05:04:56;99566.94;;;6.40;100.00
25584;BME280;13463;51.526;9.928;2023-12-20T05:07:22;99569.44;;;6.43;100.00
25584;BME280;13463;51.526;9.928;2023-12-20T05:09:49;99574.94;;;6.37;100.00
25584;BME280;13463;51.526;9.928;2023-12-20T05:12:15;99574.31;;;6.32;100.00
25584;BME280;13463;51.526;9.928;2023-12-20T05:14:42;99557.78;;;6.48;100.00
25584;BME280;13463;51.526;9.928;2023-12-20T05:17:08;99552.53;;;6.28;100.00
25584;BME280;13463;51.526;9.928;2023-12-20T05:19:35;99571.22;;;6.22;100.00
25584;BME280;13463;51.526;9.928;2023-12-20T05:22:02;99566.13;;;6.19;100.00
25584;BME280;13463;51.526;9.928;2023-12-20T05:24:29;99560.53;;;6.45;100.00
25584;BME280;13463;51.526;9.928;2023-12-20T05:26:55;99568.97;;;6.33;100.00
25584;BME280;13463;51.526;9.928;2023-12-20T05:29:22;99567.25;;;6.32;100.00
25584;BME280;13463;51.526;9.928;2023-12-20T05:31:49;99555.03;;;6.31;100.00
25584;BME280;13463;51.526;9.928;2023-12-20T05:34:15;99563.16;;;6.45;100.00
25584;BME280;13463;51.526;9.928;2023-12-20T05:36:42;99560.47;;;6.47;100.00
25584;BME280;13463;51.526;9.928;2023-12-20T05:39:09;99562.53;;;6.40;100.00
25584;BME280;13463;51.526;9.928;2023-12-20T05:41:35;99558.94;;;6.41;100.00
25584;BME280;13463;51.526;9.928;2023-12-20T05:44:02;99564.75;;;6.29;100.00
25584;BME280;13463;51.526;9.928;2023-12-20T05:46:28;99561.09;;;6.33;100.00
25584;BME280;13463;51.526;9.928;2023-12-20T05:48:55;99568.84;;;6.36;100.00
25584;BME280;13463;51.526;9.928;2023-12-20T05:51:22;99567.25;;;6.32;100.00
25584;BME280;13463;51.526;9.928;2023-12-20T05:53:49;99565.41;;;6.34;100.00
25584;BME280;13463;51.526;9.928;2023-12-20T05:56:16;99562.31;;;6.45;100.00
25584;BME280;13463;51.526;9.928;2023-12-20T05:58:42;99559.66;;;6.45;100.00
25584;BME280;13463;51.526;9.928;2023-12-20T06:01:10;99563.97;;;6.27;100.00
25584;BME280;13463;51.526;9.928;2023-12-20T06:03:37;99563.69;;;6.15;100.00
25584;BME280;13463;51.526;9.928;2023-12-20T06:06:06;99572.03;;;6.04;100.00
25584;BME280;13463;51.526;9.928;2023-12-20T06:08:42;99568.00;;;5.95;100.00
25584;BME280;13463;51.526;9.928;2023-12-20T06:11:10;99566.66;;;6.07;100.00
25584;BME280;13463;51.526;9.928;2023-12-20T06:13:36;99565.00;;;6.04;100.00
25584;BME280;13463;51.526;9.928;2023-12-20T06:16:05;99562.28;;;6.06;100.00
25584;BME280;13463;51.526;9.928;2023-12-20T06:18:33;99555.72;;;6.16;100.00
25584;BME280;13463;51.526;9.928;2023-12-20T06:20:59;99556.50;;;6.18;100.00
25584;BME280;13463;51.526;9.928;2023-12-20T06:23:26;99549.56;;;6.16;100.00
25584;BME280;13463;51.526;9.928;2023-12-20T06:25:54;99549.44;;;6.19;100.00
25584;BME280;13463;51.526;9.928;2023-12-20T06:28:20;99551.88;;;6.23;100.00
25584;BME280;13463;51.526;9.928;2023-12-20T06:30:47;99555.28;;;6.25;100.00
25584;BME280;13463;51.526;9.928;2023-12-20T06:33:16;99561.66;;;6.20;100.00
25584;BME280;13463;51.526;9.928;2023-12-20T06:35:43;99550.03;;;6.25;100.00
25584;BME280;13463;51.526;9.928;2023-12-20T06:38:10;99550.56;;;6.33;100.00
25584;BME280;13463;51.526;9.928;2023-12-20T06:40:36;99558.59;;;6.30;100.00
25584;BME280;13463;51.526;9.928;2023-12-20T06:43:03;99562.19;;;6.48;100.00
25584;BME280;13463;51.526;9.928;2023-12-20T06:45:41;99556.50;;;6.37;100.00
25584;BME280;13463;51.526;9.928;2023-12-20T06:48:08;99557.50;;;6.34;100.00
25584;BME280;13463;51.526;9.928;2023-12-20T06:50:37;99549.97;;;6.27;100.00
25584;BME280;13463;51.526;9.928;2023-12-20T06:53:06;99562.94;;;6.11;100.00
25584;BME280;13463;51.526;9.928;2023-12-20T06:55:35;99558.75;;;6.07;100.00
25584;BME280;13463;51.526;9.928;2023-12-20T06:58:02;99551.69;;;6.07;100.00
25584;BME280;13463;51.526;9.928;2023-12-20T07:00:29;99540.97;;;6.12;100.00
25584;BME280;13463;51.526;9.928;2023-12-20T07:02:56;99558.66;;;6.09;100.00
25584;BME280;13463;51.526;9.928;2023-12-20T07:05:23;99567.81;;;6.20;100.00
25584;BME280;13463;51.526;9.928;2023-12-20T07:07:49;99562.06;;;6.31;100.00
25584;BME280;13463;51.526;9.928;2023-12-20T07:10:16;99552.28;;;6.14;100.00
25584;BME280;13463;51.526;9.928;2023-12-20T07:12:43;99558.94;;;6.02;100.00
25584;BME280;13463;51.526;9.928;2023-12-20T07:15:10;99563.69;;;5.94;100.00
25584;BME280;13463;51.526;9.928;2023-12-20T07:17:37;99572.91;;;6.04;100.00
25584;BME280;13463;51.526;9.928;2023-12-20T07:20:04;99574.41;;;5.90;100.00
25584;BME280;13463;51.526;9.928;2023-12-20T07:22:33;99561.91;;;5.95;100.00
25584;BME280;13463;51.526;9.928;2023-12-20T07:25:00;99571.91;;;5.87;100.00
25584;BME280;13463;51.526;9.928;2023-12-20T07:27:27;99583.69;;;5.77;100.00
25584;BME280;13463;51.526;9.928;2023-12-20T07:29:53;99575.22;;;5.70;100.00
25584;BME280;13463;51.526;9.928;2023-12-20T07:32:20;99577.41;;;5.81;100.00
25584;BME280;13463;51.526;9.928;2023-12-20T07:34:46;99580.66;;;5.66;100.00
25584;BME280;13463;51.526;9.928;2023-12-20T07:37:13;99576.84;;;5.73;100.00
25584;BME280;13463;51.526;9.928;2023-12-20T07:39:41;99576.25;;;5.88;100.00
25584;BME280;13463;51.526;9.928;2023-12-20T07:42:08;99569.16;;;5.90;100.00
25584;BME280;13463;51.526;9.928;2023-12-20T07:44:35;99572.63;;;6.11;100.00
25584;BME280;13463;51.526;9.928;2023-12-20T07:47:05;99585.66;;;5.93;100.00
25584;BME280;13463;51.526;9.928;2023-12-20T07:49:32;99578.22;;;6.03;100.00
25584;BME280;13463;51.526;9.928;2023-12-20T07:51:58;99583.78;;;5.95;100.00
25584;BME280;13463;51.526;9.928;2023-12-20T07:54:25;99593.22;;;6.01;100.00
25584;BME280;13463;51.526;9.928;2023-12-20T07:56:52;99590.19;;;5.90;100.00
25584;BME280;13463;51.526;9.928;2023-12-20T07:59:18;99596.25;;;6.12;100.00
25584;BME280;13463;51.526;9.928;2023-12-20T08:01:57;99592.28;;;6.22;100.00
25584;BME280;13463;51.526;9.928;2023-12-20T08:04:24;99594.00;;;6.23;100.00
25584;BME280;13463;51.526;9.928;2023-12-20T08:06:51;99597.16;;;6.31;100.00
25584;BME280;13463;51.526;9.928;2023-12-20T08:09:18;99594.53;;;6.31;100.00
25584;BME280;13463;51.526;9.928;2023-12-20T08:11:46;99589.63;;;6.42;100.00
25584;BME280;13463;51.526;9.928;2023-12-20T08:14:13;99608.63;;;6.30;100.00
25584;BME280;13463;51.526;9.928;2023-12-20T08:16:40;99597.31;;;6.28;100.00
25584;BME280;13463;51.526;9.928;2023-12-20T08:19:06;99605.97;;;6.30;100.00
25584;BME280;13463;51.526;9.928;2023-12-20T08:21:34;99589.19;;;6.33;100.00
25584;BME280;13463;51.526;9.928;2023-12-20T08:24:04;99593.75;;;6.09;100.00
25584;BME280;13463;51.526;9.928;2023-12-20T08:26:30;99591.53;;;6.00;100.00
25584;BME280;13463;51.526;9.928;2023-12-20T08:28:57;99593.09;;;6.04;100.00
25584;BME280;13463;51.526;9.928;2023-12-20T08:31:27;99594.47;;;5.92;100.00
25584;BME280;13463;51.526;9.928;2023-12-20T08:33:53;99597.91;;;5.94;100.00
25584;BME280;13463;51.526;9.928;2023-12-20T08:36:21;99584.00;;;6.11;100.00
25584;BME280;13463;51.526;9.928;2023-12-20T08:38:49;99587.19;;;6.19;100.00
25584;BME280;13463;51.526;9.928;2023-12-20T08:41:18;99591.13;;;6.09;100.00
25584;BME280;13463;51.526;9.928;2023-12-20T08:43:45;99584.59;;;6.18;100.00
25584;BME280;13463;51.526;9.928;2023-12-20T08:46:13;99587.44;;;6.13;100.00
25584;BME280;13463;51.526;9.928;2023-12-20T08:48:40;99582.81;;;6.38;100.00
25584;BME280;13463;51.526;9.928;2023-12-20T08:51:07;99578.75;;;6.50;100.00
25584;BME280;13463;51.526;9.928;2023-12-20T08:53:35;99588.84;;;6.60;100.00
25584;BME280;13463;51.526;9.928;2023-12-20T08:56:02;99586.81;;;6.65;100.00
25584;BME280;13463;51.526;9.928;2023-12-20T08:58:28;99590.25;;;6.67;100.00
25584;BME280;13463;51.526;9.928;2023-12-20T09:00:55;99576.66;;;6.77;100.00
25584;BME280;13463;51.526;9.928;2023-12-20T09:03:23;99582.34;;;6.67;100.00
25584;BME280;13463;51.526;9.928;2023-12-20T09:05:50;99584.69;;;6.73;100.00
25584;BME280;13463;51.526;9.928;2023-12-20T09:08:17;99586.69;;;6.68;100.00
25584;BME280;13463;51.526;9.928;2023-12-20T09:10:44;99596.66;;;6.62;100.00
25584;BME280;13463;51.526;9.928;2023-12-20T09:13:11;99576.94;;;6.89;100.00
25584;BME280;13463;51.526;9.928;2023-12-20T09:15:38;99571.44;;;6.75;100.00
25584;BME280;13463;51.526;9.928;2023-12-20T09:18:07;99579.41;;;6.73;100.00
25584;BME280;13463;51.526;9.928;2023-12-20T09:20:34;99579.13;;;6.61;100.00
25584;BME280;13463;51.526;9.928;2023-12-20T09:23:01;99586.13;;;6.62;100.00
25584;BME280;13463;51.526;9.928;2023-12-20T09:25:28;99591.25;;;6.65;100.00
25584;BME280;13463;51.526;9.928;2023-12-20T09:27:55;99591.81;;;6.53;100.00
25584;BME280;13463;51.526;9.928;2023-12-20T09:30:22;99594.09;;;6.60;100.00
25584;BME280;13463;51.526;9.928;2023-12-20T09:32:54;99593.53;;;6.72;100.00
25584;BME280;13463;51.526;9.928;2023-12-20T09:35:21;99593.53;;;6.72;100.00
25584;BME280;13463;51.526;9.928;2023-12-20T09:37:49;99602.47;;;6.50;100.00
25584;BME280;13463;51.526;9.928;2023-12-20T09:40:18;99597.53;;;6.42;100.00
25584;BME280;13463;51.526;9.928;2023-12-20T09:43:20;99587.53;;;6.50;100.00
25584;BME280;13463;51.526;9.928;2023-12-20T09:45:46;99583.81;;;6.54;100.00
25584;BME280;13463;51.526;9.928;2023-12-20T09:48:14;99587.03;;;6.61;100.00
25584;BME280;13463;51.526;9.928;2023-12-20T09:50:43;99593.38;;;6.57;100.00
25584;BME280;13463;51.526;9.928;2023-12-20T09:53:17;99583.94;;;6.51;100.00
25584;BME280;13463;51.526;9.928;2023-12-20T09:55:45;99577.72;;;6.72;100.00
25584;BME280;13463;51.526;9.928;2023-12-20T09:58:12;99568.44;;;6.83;100.00
25584;BME280;13463;51.526;9.928;2023-12-20T10:00:39;99579.84;;;6.64;100.00
25584;BME280;13463;51.526;9.928;2023-12-20T10:03:06;99583.13;;;6.69;100.00
25584;BME280;13463;51.526;9.928;2023-12-20T10:05:34;99574.94;;;6.76;100.00
25584;BME280;13463;51.526;9.928;2023-12-20T10:08:01;99568.31;;;6.86;100.00
25584;BME280;13463;51.526;9.928;2023-12-20T10:10:30;99562.19;;;6.66;100.00
25584;BME280;13463;51.526;9.928;2023-12-20T10:13:11;99565.81;;;6.83;100.00
25584;BME280;13463;51.526;9.928;2023-12-20T10:15:39;99554.34;;;7.02;100.00
25584;BME280;13463;51.526;9.928;2023-12-20T10:18:08;99549.78;;;7.06;100.00
25584;BME280;13463;51.526;9.928;2023-12-20T10:20:35;99535.81;;;6.85;100.00
25584;BME280;13463;51.526;9.928;2023-12-20T10:23:01;99531.84;;;6.77;100.00
25584;BME280;13463;51.526;9.928;2023-12-20T10:25:28;99529.91;;;6.80;100.00
25584;BME280;13463;51.526;9.928;2023-12-20T10:28:15;99531.97;;;6.92;100.00
25584;BME280;13463;51.526;9.928;2023-12-20T10:30:46;99517.88;;;6.93;100.00
25584;BME280;13463;51.526;9.928;2023-12-20T10:33:14;99528.25;;;7.15;100.00
25584;BME280;13463;51.526;9.928;2023-12-20T10:35:50;99520.84;;;7.23;100.00
25584;BME280;13463;51.526;9.928;2023-12-20T10:38:16;99519.22;;;7.37;100.00
25584;BME280;13463;51.526;9.928;2023-12-20T10:40:45;99522.97;;;7.15;100.00
25584;BME280;13463;51.526;9.928;2023-12-20T10:43:12;99516.16;;;7.11;100.00
25584;BME280;13463;51.526;9.928;2023-12-20T10:45:42;99505.41;;;7.32;100.00
25584;BME280;13463;51.526;9.928;2023-12-20T10:48:10;99517.88;;;7.29;100.00
25584;BME280;13463;51.526;9.928;2023-12-20T10:50:40;99519.59;;;6.76;100.00
25584;BME280;13463;51.526;9.928;2023-12-20T10:53:07;99517.03;;;6.74;100.00
25584;BME280;13463;51.526;9.928;2023-12-20T10:55:34;99507.00;;;6.82;100.00
25584;BME280;13463;51.526;9.928;2023-12-20T10:58:02;99495.28;;;6.88;100.00
25584;BME280;13463;51.526;9.928;2023-12-20T11:00:35;99493.75;;;6.84;100.00
25584;BME280;13463;51.526;9.928;2023-12-20T11:03:05;99499.38;;;6.57;100.00
25584;BME280;13463;51.526;9.928;2023-12-20T11:05:52;99496.97;;;6.53;100.00
25584;BME280;13463;51.526;9.928;2023-12-20T11:10:58;99482.13;;;6.69;100.00
25584;BME280;13463;51.526;9.928;2023-12-20T11:13:33;99485.69;;;6.87;100.00
25584;BME280;13463;51.526;9.928;2023-12-20T11:16:01;99481.00;;;6.75;100.00
25584;BME280;13463;51.526;9.928;2023-12-20T11:18:30;99481.16;;;6.71;100.00
25584;BME280;13463;51.526;9.928;2023-12-20T11:21:04;99471.75;;;6.66;100.00
25584;BME280;13463;51.526;9.928;2023-12-20T11:23:34;99462.69;;;6.71;100.00
25584;BME280;13463;51.526;9.928;2023-12-20T11:26:02;99457.34;;;6.92;100.00
25584;BME280;13463;51.526;9.928;2023-12-20T11:28:29;99460.16;;;6.87;100.00
25584;BME280;13463;51.526;9.928;2023-12-20T11:31:00;99448.63;;;6.90;100.00
25584;BME280;13463;51.526;9.928;2023-12-20T11:33:32;99462.13;;;6.84;100.00
25584;BME280;13463;51.526;9.928;2023-12-20T11:36:02;99450.34;;;6.91;100.00
25584;BME280;13463;51.526;9.928;2023-12-20T11:38:38;99439.13;;;6.68;100.00
25584;BME280;13463;51.526;9.928;2023-12-20T11:41:06;99435.91;;;6.81;100.00
25584;BME280;13463;51.526;9.928;2023-12-20T11:43:36;99441.94;;;6.83;100.00
25584;BME280;13463;51.526;9.928;2023-12-20T11:46:07;99427.72;;;6.68;100.00
25584;BME280;13463;51.526;9.928;2023-12-20T11:48:36;99419.00;;;6.85;100.00
25584;BME280;13463;51.526;9.928;2023-12-20T11:51:09;99419.81;;;7.04;100.00
25584;BME280;13463;51.526;9.928;2023-12-20T11:53:36;99408.97;;;7.10;100.00
25584;BME280;13463;51.526;9.928;2023-12-20T11:56:05;99410.97;;;7.05;100.00
25584;BME280;13463;51.526;9.928;2023-12-20T11:58:33;99420.34;;;6.93;100.00
25584;BME280;13463;51.526;9.928;2023-12-20T12:01:00;99405.41;;;6.75;100.00
25584;BME280;13463;51.526;9.928;2023-12-20T12:03:29;99412.31;;;6.78;100.00
25584;BME280;13463;51.526;9.928;2023-12-20T12:05:55;99407.25;;;6.92;100.00
25584;BME280;13463;51.526;9.928;2023-12-20T12:08:22;99397.63;;;6.91;100.00
25584;BME280;13463;51.526;9.928;2023-12-20T12:10:49;99406.72;;;6.66;100.00
25584;BME280;13463;51.526;9.928;2023-12-20T12:13:15;99399.84;;;6.81;100.00
25584;BME280;13463;51.526;9.928;2023-12-20T12:15:42;99408.75;;;6.79;100.00
25584;BME280;13463;51.526;9.928;2023-12-20T12:18:09;99413.19;;;6.78;100.00
25584;BME280;13463;51.526;9.928;2023-12-20T12:20:36;99412.72;;;6.70;100.00
25584;BME280;13463;51.526;9.928;2023-12-20T12:23:05;99412.50;;;6.75;100.00
25584;BME280;13463;51.526;9.928;2023-12-20T12:25:35;99396.69;;;6.75;100.00
25584;BME280;13463;51.526;9.928;2023-12-20T12:28:07;99402.13;;;6.53;100.00
25584;BME280;13463;51.526;9.928;2023-12-20T12:30:33;99398.91;;;6.46;100.00
25584;BME280;13463;51.526;9.928;2023-12-20T12:33:08;99387.91;;;6.38;100.00
25584;BME280;13463;51.526;9.928;2023-12-20T12:35:35;99393.66;;;6.46;100.00
25584;BME280;13463;51.526;9.928;2023-12-20T12:38:01;99391.19;;;6.43;100.00
25584;BME280;13463;51.526;9.928;2023-12-20T12:40:29;99389.81;;;6.35;100.00
25584;BME280;13463;51.526;9.928;2023-12-20T12:42:56;99383.69;;;6.34;100.00
25584;BME280;13463;51.526;9.928;2023-12-20T12:45:22;99374.69;;;6.21;100.00
25584;BME280;13463;51.526;9.928;2023-12-20T12:47:49;99387.91;;;6.20;100.00
25584;BME280;13463;51.526;9.928;2023-12-20T12:50:16;99379.94;;;6.21;100.00
25584;BME280;13463;51.526;9.928;2023-12-20T12:52:43;99377.50;;;6.35;100.00
25584;BME280;13463;51.526;9.928;2023-12-20T12:55:10;99372.84;;;6.23;100.00
25584;BME280;13463;51.526;9.928;2023-12-20T12:57:36;99370.38;;;6.37;100.00
25584;BME280;13463;51.526;9.928;2023-12-20T13:00:03;99370.47;;;6.36;100.00
25584;BME280;13463;51.526;9.928;2023-12-20T13:02:31;99378.09;;;6.23;100.00
25584;BME280;13463;51.526;9.928;2023-12-20T13:04:57;99381.72;;;6.21;100.00